KBCE/BCE METAR and TAF weather

Enter ICAO airport designator
Station Type Date Time Source
KBCE METAR 2020/06/05 09:53 UTC NOAA

KBCE 050953Z AUTO 27008KT 10SM CLR 08/M02 A3017 RMK AO2 SLP092 T00781017


Station Type Date Time Source
KBCE Decoded METAR 2020/06/05 09:53 UTC NOAA

BRYCE CANYON AIRPORT, UT, United States (KBCE) 37-42N 112-09W 2312M
Jun 05, 2020 - 05:53 AM EDT / 2020.06.05 0953 UTC
Wind: from the W (270 degrees) at 9 MPH (8 KT):0
Visibility: 10 mile(s):0
Sky conditions: clear
Temperature: 46.0 F (7.8 C)
Dew Point: 28.9 F (-1.7 C)
Relative Humidity: 50%
Pressure (altimeter): 30.17 in. Hg (1021 hPa)
ob: KBCE 050953Z AUTO 27008KT 10SM CLR 08/M02 A3017 RMK AO2 SLP092 T00781017
cycle: 10

Station Type Date Time Source
KBCE TAF 2020/06/05 06:22 UTC NOAA

TAF KBCE 050520Z 0506/0606 28005KT P6SM FEW080
FM051800 17015G28KT P6SM VCSH SCT100
FM060000 20016G25KT P6SM VCSH BKN070
FM060300 20010G19KT P6SM VCSH OVC070

Example: see airport list